Time;durP1;ratioP1;P1;durP2;ratioP2;P2;SDS_P1;SDS_P2;PMS_P1;PMS_P2;Temp;Humidity;BMP_temperature;BMP_pressure;BME280_temperature;BME280_humidity;BME280_pressure;Samples;Min_cycle;Max_cycle;Signal;HPM_P1;HPM_P2
2022/09/20 00:00:46;;;;;;;;;;;11.50;85.80;;;;;;5078231;28;19939;-65
2022/09/20 00:03:14;;;;;;;;;;;11.50;85.90;;;;;;5082448;28;19924;-63
2022/09/20 00:05:43;;;;;;;;;;;11.40;86.00;;;;;;5085260;28;20293;-63
2022/09/20 00:08:11;;;;;;;;;;;11.40;86.10;;;;;;5095058;28;19925;-63
2022/09/20 00:10:38;;;;;;;;;;;11.40;86.00;;;;;;5087379;28;20380;-63
2022/09/20 00:13:09;;;;;;;;;;;11.40;85.90;;;;;;5079378;28;22029;-63
2022/09/20 00:15:39;;;;;;;;;;;11.40;85.80;;;;;;5077649;28;19947;-64
2022/09/20 00:18:06;;;;;;;;;;;11.40;85.80;;;;;;5078362;28;20378;-64
2022/09/20 00:20:33;;;;;;;;;;;11.40;85.80;;;;;;5078538;28;20317;-63
2022/09/20 00:23:01;;;;;;;;;;;11.30;85.70;;;;;;5081500;28;20389;-63
2022/09/20 00:25:31;;;;;;;;;;;11.30;85.80;;;;;;5078777;28;19924;-63
2022/09/20 00:27:57;;;;;;;;;;;11.20;85.80;;;;;;5078805;28;19931;-64
2022/09/20 00:30:24;;;;;;;;;;;11.20;85.90;;;;;;5072089;28;20022;-63
2022/09/20 00:32:51;;;;;;;;;;;11.20;86.00;;;;;;5076167;28;20332;-63
2022/09/20 00:35:17;;;;;;;;;;;11.20;85.90;;;;;;5077797;28;19935;-63
2022/09/20 00:37:44;;;;;;;;;;;11.10;85.80;;;;;;5067834;28;19924;-64
2022/09/20 00:40:13;;;;;;;;;;;11.20;85.70;;;;;;5065859;28;19928;-64
2022/09/20 00:42:40;;;;;;;;;;;11.20;85.60;;;;;;5056787;28;20357;-63
2022/09/20 00:45:11;;;;;;;;;;;11.20;85.50;;;;;;5078471;28;19932;-64
2022/09/20 00:47:40;;;;;;;;;;;11.10;85.40;;;;;;5077823;28;19924;-64
2022/09/20 00:50:17;;;;;;;;;;;11.10;85.40;;;;;;5076497;28;19946;-63
2022/09/20 00:52:45;;;;;;;;;;;11.10;85.30;;;;;;5079429;28;19963;-64
2022/09/20 00:55:14;;;;;;;;;;;11.10;85.20;;;;;;5078125;28;19935;-64
2022/09/20 00:57:41;;;;;;;;;;;11.00;85.30;;;;;;5076710;28;19932;-64
2022/09/20 01:00:10;;;;;;;;;;;10.90;85.40;;;;;;5076784;28;19928;-63
2022/09/20 01:02:38;;;;;;;;;;;10.90;85.40;;;;;;5075670;28;20015;-63
2022/09/20 01:05:07;;;;;;;;;;;10.90;85.30;;;;;;5079361;28;19928;-64
2022/09/20 01:07:34;;;;;;;;;;;10.90;85.30;;;;;;5078231;28;19924;-63
2022/09/20 01:10:01;;;;;;;;;;;10.90;85.30;;;;;;5077621;28;19924;-63
2022/09/20 01:12:33;;;;;;;;;;;10.80;85.30;;;;;;5079102;28;20022;-62
2022/09/20 01:15:00;;;;;;;;;;;10.80;85.20;;;;;;5077592;28;19929;-63
2022/09/20 01:17:29;;;;;;;;;;;10.80;85.20;;;;;;5075318;28;20389;-63
2022/09/20 01:20:04;;;;;;;;;;;10.70;85.20;;;;;;5076592;28;19935;-65
2022/09/20 01:22:39;;;;;;;;;;;10.70;85.20;;;;;;5079173;28;20286;-64
2022/09/20 01:25:09;;;;;;;;;;;10.70;85.20;;;;;;5078541;28;19935;-63
2022/09/20 01:27:40;;;;;;;;;;;10.70;85.10;;;;;;5076365;28;19962;-63
2022/09/20 01:30:08;;;;;;;;;;;10.70;84.90;;;;;;5075982;28;19958;-62
2022/09/20 01:32:45;;;;;;;;;;;10.70;84.90;;;;;;5076259;28;19928;-62
2022/09/20 01:35:13;;;;;;;;;;;10.60;85.00;;;;;;5077740;28;20340;-64
2022/09/20 01:37:46;;;;;;;;;;;10.60;84.90;;;;;;5075854;28;19928;-62
2022/09/20 01:40:16;;;;;;;;;;;10.60;84.70;;;;;;5074161;28;19924;-63
2022/09/20 01:42:51;;;;;;;;;;;10.50;84.80;;;;;;5078569;28;20014;-60
2022/09/20 01:45:21;;;;;;;;;;;10.50;84.70;;;;;;5074362;28;20366;-63
2022/09/20 01:47:52;;;;;;;;;;;10.40;84.80;;;;;;5075687;28;20374;-64
2022/09/20 01:50:25;;;;;;;;;;;10.40;84.80;;;;;;5081090;28;22081;-63
2022/09/20 01:53:10;;;;;;;;;;;10.40;84.90;;;;;;5078770;28;19932;-62
2022/09/20 01:55:57;;;;;;;;;;;10.50;84.90;;;;;;5073657;28;19946;-63
2022/09/20 01:58:43;;;;;;;;;;;10.50;84.70;;;;;;5076988;28;20019;-63
2022/09/20 02:01:23;;;;;;;;;;;10.50;84.70;;;;;;5074631;28;19933;-63
2022/09/20 02:04:07;;;;;;;;;;;10.40;84.70;;;;;;5075676;28;19928;-64
2022/09/20 02:06:41;;;;;;;;;;;10.40;84.90;;;;;;5078991;28;20366;-64
2022/09/20 02:09:29;;;;;;;;;;;10.40;85.00;;;;;;5078801;28;20273;-63
2022/09/20 02:12:13;;;;;;;;;;;10.40;84.90;;;;;;5073115;28;19928;-63
2022/09/20 02:14:45;;;;;;;;;;;10.40;85.00;;;;;;5077861;28;19928;-63
2022/09/20 02:17:13;;;;;;;;;;;10.40;85.10;;;;;;5076088;28;19929;-65
2022/09/20 02:19:56;;;;;;;;;;;10.40;85.20;;;;;;5077003;28;20385;-63
2022/09/20 02:26:11;;;;;;;;;;;10.40;85.10;;;;;;5037348;28;19935;-64
2022/09/20 02:28:51;;;;;;;;;;;10.30;85.00;;;;;;5085115;28;19939;-62
2022/09/20 02:31:30;;;;;;;;;;;10.30;85.00;;;;;;5084228;28;19935;-65
2022/09/20 02:34:11;;;;;;;;;;;10.30;85.00;;;;;;5084302;28;19931;-63
2022/09/20 02:36:41;;;;;;;;;;;10.30;84.90;;;;;;5072644;28;20287;-62
2022/09/20 02:39:11;;;;;;;;;;;10.30;84.80;;;;;;5083568;28;19924;-62
2022/09/20 02:42:02;;;;;;;;;;;10.30;84.70;;;;;;5084923;28;19924;-63
2022/09/20 02:44:36;;;;;;;;;;;10.30;84.80;;;;;;5069419;28;20255;-63
2022/09/20 02:47:09;;;;;;;;;;;10.20;84.80;;;;;;5088377;28;19928;-69
2022/09/20 02:49:41;;;;;;;;;;;10.20;84.90;;;;;;5098905;28;19935;-64
2022/09/20 03:13:33;;;;;;;;;;;10.30;85.40;;;;;;5080049;28;19922;-63
2022/09/20 03:16:08;;;;;;;;;;;10.20;85.70;;;;;;5076690;28;20343;-63
2022/09/20 03:18:42;;;;;;;;;;;10.20;85.70;;;;;;5080519;28;20013;-62
2022/09/20 03:21:15;;;;;;;;;;;10.20;85.80;;;;;;5079630;28;20016;-61
2022/09/20 03:23:49;;;;;;;;;;;10.20;85.80;;;;;;5083120;28;20018;-64
2022/09/20 03:26:20;;;;;;;;;;;10.20;85.80;;;;;;5083805;28;19940;-63
2022/09/20 03:28:53;;;;;;;;;;;10.20;85.90;;;;;;5065145;28;20319;-63
2022/09/20 03:31:26;;;;;;;;;;;10.20;86.00;;;;;;5082619;28;19925;-64
2022/09/20 03:33:58;;;;;;;;;;;10.10;86.10;;;;;;5082566;28;19935;-63
2022/09/20 03:36:33;;;;;;;;;;;10.10;86.20;;;;;;5083421;28;19946;-63
2022/09/20 03:39:10;;;;;;;;;;;10.10;86.20;;;;;;5075129;28;20381;-65
2022/09/20 03:41:52;;;;;;;;;;;10.10;86.30;;;;;;5082839;28;20401;-64
2022/09/20 03:44:35;;;;;;;;;;;10.10;86.40;;;;;;5079734;28;19924;-64
2022/09/20 03:47:06;;;;;;;;;;;10.10;86.40;;;;;;5083882;28;19936;-64
2022/09/20 03:49:51;;;;;;;;;;;10.10;86.40;;;;;;5081725;28;19924;-63
2022/09/20 03:52:28;;;;;;;;;;;10.10;86.40;;;;;;5077422;28;19924;-63
2022/09/20 03:55:03;;;;;;;;;;;10.10;86.50;;;;;;5081823;28;20038;-62
2022/09/20 03:57:34;;;;;;;;;;;10.20;86.50;;;;;;5081860;28;19928;-64
2022/09/20 04:00:16;;;;;;;;;;;10.20;86.70;;;;;;5081165;28;19939;-64
2022/09/20 04:02:53;;;;;;;;;;;10.20;86.60;;;;;;5078739;28;20468;-64
2022/09/20 04:05:24;;;;;;;;;;;10.20;86.60;;;;;;5080784;28;19982;-64
2022/09/20 04:07:55;;;;;;;;;;;10.20;86.50;;;;;;5082341;28;20396;-64
2022/09/20 04:10:29;;;;;;;;;;;10.20;86.60;;;;;;5079448;28;19931;-63
2022/09/20 04:13:15;;;;;;;;;;;10.20;86.60;;;;;;5081705;28;19928;-65
2022/09/20 04:15:46;;;;;;;;;;;10.20;86.60;;;;;;5082112;28;19924;-63
2022/09/20 04:18:19;;;;;;;;;;;10.20;86.50;;;;;;5081877;28;19974;-63
2022/09/20 04:20:48;;;;;;;;;;;10.20;86.60;;;;;;5081548;28;19997;-64
2022/09/20 04:23:21;;;;;;;;;;;10.20;86.50;;;;;;5081983;28;19936;-63
2022/09/20 04:25:49;;;;;;;;;;;10.20;86.50;;;;;;5082668;28;19932;-64
2022/09/20 04:28:19;;;;;;;;;;;10.10;86.50;;;;;;5081367;28;20315;-68
2022/09/20 04:30:48;;;;;;;;;;;10.10;86.60;;;;;;5082280;28;19924;-64
2022/09/20 04:33:20;;;;;;;;;;;10.10;86.70;;;;;;5080495;28;19939;-63
2022/09/20 04:38:34;;;;;;;;;;;10.10;86.80;;;;;;5086861;28;19924;-64
2022/09/20 04:41:22;;;;;;;;;;;10.00;86.80;;;;;;5098802;28;20020;-64
2022/09/20 04:44:17;;;;;;;;;;;10.10;86.80;;;;;;5056387;28;19946;-63
2022/09/20 04:47:05;;;;;;;;;;;10.10;86.70;;;;;;5093696;28;19967;-64
2022/09/20 04:49:47;;;;;;;;;;;10.10;86.70;;;;;;5082114;28;20290;-64
2022/09/20 04:52:33;;;;;;;;;;;10.10;86.80;;;;;;5079873;28;19935;-64
2022/09/20 04:55:14;;;;;;;;;;;10.10;86.70;;;;;;5082203;28;19924;-63
2022/09/20 04:58:03;;;;;;;;;;;10.10;86.70;;;;;;5039562;28;19935;-63
2022/09/20 05:00:39;;;;;;;;;;;10.20;86.60;;;;;;5078234;28;20404;-64
2022/09/20 05:03:17;;;;;;;;;;;10.20;86.50;;;;;;5078693;28;19970;-63
2022/09/20 05:06:04;;;;;;;;;;;10.20;86.40;;;;;;5078650;28;19928;-63
2022/09/20 05:08:45;;;;;;;;;;;10.10;86.40;;;;;;5063121;28;19924;-63
2022/09/20 05:11:29;;;;;;;;;;;10.10;86.30;;;;;;5077441;28;20013;-63
2022/09/20 05:14:06;;;;;;;;;;;10.10;86.20;;;;;;5077609;28;19996;-63
2022/09/20 05:16:42;;;;;;;;;;;10.00;86.30;;;;;;5081661;28;20008;-63
2022/09/20 05:19:16;;;;;;;;;;;10.00;86.30;;;;;;5081460;28;19993;-63
2022/09/20 05:21:52;;;;;;;;;;;9.90;86.40;;;;;;5081638;28;19928;-64
2022/09/20 05:24:28;;;;;;;;;;;9.90;86.40;;;;;;5076475;28;19936;-63
2022/09/20 05:27:02;;;;;;;;;;;9.90;86.40;;;;;;5078762;28;19928;-66
2022/09/20 05:29:33;;;;;;;;;;;9.80;86.20;;;;;;5081331;28;19936;-63
2022/09/20 05:32:06;;;;;;;;;;;9.80;86.30;;;;;;5081793;28;20023;-64
2022/09/20 05:34:41;;;;;;;;;;;9.70;86.40;;;;;;5081983;28;19932;-62
2022/09/20 05:37:15;;;;;;;;;;;9.70;86.40;;;;;;5076878;28;19947;-64
2022/09/20 05:39:45;;;;;;;;;;;9.80;86.30;;;;;;5078021;28;20472;-63
2022/09/20 05:42:15;;;;;;;;;;;9.90;86.40;;;;;;5081868;28;20430;-64
2022/09/20 05:44:51;;;;;;;;;;;9.90;86.50;;;;;;5081028;28;19936;-64
2022/09/20 05:47:18;;;;;;;;;;;9.90;86.60;;;;;;5081783;28;20373;-64
2022/09/20 05:49:51;;;;;;;;;;;10.00;86.60;;;;;;5082999;28;19924;-64
2022/09/20 05:52:25;;;;;;;;;;;10.00;86.70;;;;;;5080892;28;19928;-63
2022/09/20 05:55:08;;;;;;;;;;;10.00;86.70;;;;;;5084401;28;19929;-65
2022/09/20 05:57:42;;;;;;;;;;;10.10;86.70;;;;;;5083489;28;19935;-64
2022/09/20 06:00:13;;;;;;;;;;;10.10;86.90;;;;;;5082520;28;19928;-64
2022/09/20 06:02:42;;;;;;;;;;;10.20;86.80;;;;;;5085683;28;19928;-63
2022/09/20 06:05:13;;;;;;;;;;;10.20;86.80;;;;;;5084612;28;19947;-63
2022/09/20 06:08:02;;;;;;;;;;;10.20;86.70;;;;;;5073255;28;20359;-63
2022/09/20 06:10:35;;;;;;;;;;;10.30;86.70;;;;;;5086348;28;20010;-64
2022/09/20 06:13:07;;;;;;;;;;;10.20;86.60;;;;;;5084580;28;19947;-64
2022/09/20 06:15:37;;;;;;;;;;;10.20;86.60;;;;;;5081094;28;19932;-63
2022/09/20 06:18:09;;;;;;;;;;;10.20;86.70;;;;;;5084361;28;20274;-63
2022/09/20 06:20:39;;;;;;;;;;;10.20;86.80;;;;;;5084599;28;19935;-64
2022/09/20 06:23:05;;;;;;;;;;;10.20;86.80;;;;;;5072154;28;19936;-64
2022/09/20 06:25:34;;;;;;;;;;;10.30;86.80;;;;;;5084772;28;20030;-63
2022/09/20 06:28:04;;;;;;;;;;;10.40;86.90;;;;;;5081643;28;19924;-63
2022/09/20 06:30:33;;;;;;;;;;;10.40;86.90;;;;;;5084534;28;19931;-63
2022/09/20 06:33:10;;;;;;;;;;;10.40;86.90;;;;;;5081856;28;19939;-63
2022/09/20 06:35:38;;;;;;;;;;;10.50;86.80;;;;;;5084178;28;19979;-63
2022/09/20 06:43:40;;;;;;;;;;;10.50;86.80;;;;;;5082838;28;19925;-63
2022/09/20 06:46:07;;;;;;;;;;;10.50;86.90;;;;;;5083876;28;19928;-63
2022/09/20 06:48:38;;;;;;;;;;;10.40;86.90;;;;;;5080997;28;19932;-63
2022/09/20 06:51:05;;;;;;;;;;;10.50;86.90;;;;;;5084103;28;19931;-63
2022/09/20 06:53:33;;;;;;;;;;;10.50;86.90;;;;;;5066606;28;20297;-64
2022/09/20 06:56:00;;;;;;;;;;;10.50;86.90;;;;;;5082907;28;19946;-64
2022/09/20 06:58:27;;;;;;;;;;;10.60;86.90;;;;;;5080948;28;19975;-62
2022/09/20 07:00:54;;;;;;;;;;;10.50;87.00;;;;;;5079807;28;19928;-63
2022/09/20 07:03:20;;;;;;;;;;;10.60;87.00;;;;;;5083581;28;19924;-62
2022/09/20 07:05:48;;;;;;;;;;;10.60;86.90;;;;;;5083568;28;19928;-63
2022/09/20 07:08:16;;;;;;;;;;;10.60;87.00;;;;;;5083168;28;20285;-63
2022/09/20 07:10:43;;;;;;;;;;;10.60;87.00;;;;;;5084844;28;20350;-64
2022/09/20 07:13:10;;;;;;;;;;;10.70;87.10;;;;;;5070972;28;19932;-63
2022/09/20 07:15:37;;;;;;;;;;;10.70;87.00;;;;;;5083568;28;19924;-63
2022/09/20 07:18:05;;;;;;;;;;;10.70;87.10;;;;;;5082532;28;19928;-64
2022/09/20 07:20:32;;;;;;;;;;;10.70;87.10;;;;;;5094084;28;19932;-64
2022/09/20 07:23:01;;;;;;;;;;;10.80;86.90;;;;;;5107195;28;19948;-64
2022/09/20 07:25:28;;;;;;;;;;;10.90;87.10;;;;;;5093300;28;19928;-63
2022/09/20 07:27:54;;;;;;;;;;;10.90;87.10;;;;;;5096780;28;19928;-63
2022/09/20 07:30:21;;;;;;;;;;;11.00;86.90;;;;;;5093738;28;19928;-64
2022/09/20 07:32:48;;;;;;;;;;;11.00;86.90;;;;;;5085602;28;19939;-65
2022/09/20 07:35:15;;;;;;;;;;;11.00;87.10;;;;;;5081836;28;19939;-64
2022/09/20 07:37:42;;;;;;;;;;;11.10;87.00;;;;;;5072807;28;19932;-63
2022/09/20 07:40:11;;;;;;;;;;;11.10;86.90;;;;;;5081795;28;19932;-63
2022/09/20 07:42:37;;;;;;;;;;;11.10;87.10;;;;;;5079012;28;19931;-63
2022/09/20 07:45:04;;;;;;;;;;;11.20;86.90;;;;;;5083023;28;19924;-63
2022/09/20 07:47:31;;;;;;;;;;;11.20;86.60;;;;;;5083645;28;19928;-64
2022/09/20 07:49:58;;;;;;;;;;;11.20;86.90;;;;;;5082203;28;19924;-63
2022/09/20 07:52:25;;;;;;;;;;;11.20;86.60;;;;;;5084855;28;19928;-64
2022/09/20 07:54:52;;;;;;;;;;;11.30;86.60;;;;;;5084088;28;19940;-63
2022/09/20 07:57:20;;;;;;;;;;;11.40;86.70;;;;;;5080667;28;20357;-64
2022/09/20 07:59:47;;;;;;;;;;;11.40;86.60;;;;;;5083728;28;19931;-63
2022/09/20 08:02:14;;;;;;;;;;;11.50;86.50;;;;;;5080808;28;19932;-71
2022/09/20 08:04:41;;;;;;;;;;;11.50;86.50;;;;;;5083097;28;19924;-71
2022/09/20 08:07:08;;;;;;;;;;;11.60;86.40;;;;;;5082144;28;20325;-70
2022/09/20 08:09:35;;;;;;;;;;;11.60;86.40;;;;;;5083448;28;19950;-71
2022/09/20 08:12:02;;;;;;;;;;;11.70;86.20;;;;;;5079266;28;20018;-71
2022/09/20 08:14:30;;;;;;;;;;;11.80;86.10;;;;;;5083291;28;19939;-72
2022/09/20 08:16:58;;;;;;;;;;;11.80;86.10;;;;;;5082396;28;19956;-71
2022/09/20 08:19:24;;;;;;;;;;;11.80;85.90;;;;;;5082083;28;20097;-71
2022/09/20 08:21:52;;;;;;;;;;;11.80;85.90;;;;;;5083479;28;19931;-71
2022/09/20 08:24:19;;;;;;;;;;;11.80;85.90;;;;;;5081777;28;20396;-71
2022/09/20 08:26:48;;;;;;;;;;;11.80;85.70;;;;;;5083553;28;19928;-71
2022/09/20 08:29:15;;;;;;;;;;;11.80;85.70;;;;;;5080995;28;19970;-72
2022/09/20 08:31:45;;;;;;;;;;;11.90;85.40;;;;;;5083945;28;19948;-71
2022/09/20 08:34:13;;;;;;;;;;;11.90;85.50;;;;;;5082683;28;19924;-70
2022/09/20 08:36:41;;;;;;;;;;;11.90;85.20;;;;;;5082171;28;19982;-72
2022/09/20 08:39:08;;;;;;;;;;;12.00;85.00;;;;;;5082826;28;20354;-71
2022/09/20 08:41:38;;;;;;;;;;;12.10;84.80;;;;;;5082874;28;20335;-72
2022/09/20 08:44:07;;;;;;;;;;;12.10;84.70;;;;;;5085155;28;20372;-71
2022/09/20 08:46:35;;;;;;;;;;;12.20;84.60;;;;;;5079597;28;19929;-72
2022/09/20 08:49:06;;;;;;;;;;;12.30;84.30;;;;;;5083365;28;19977;-73
2022/09/20 08:51:34;;;;;;;;;;;12.30;84.00;;;;;;5082355;28;19939;-71
2022/09/20 08:54:03;;;;;;;;;;;12.30;83.80;;;;;;5083595;28;19975;-72
2022/09/20 08:56:35;;;;;;;;;;;12.40;83.60;;;;;;5082611;28;19931;-72
2022/09/20 08:59:01;;;;;;;;;;;12.50;83.60;;;;;;5083092;28;19924;-72
2022/09/20 09:01:31;;;;;;;;;;;12.50;83.30;;;;;;5075536;28;20348;-72
2022/09/20 09:03:58;;;;;;;;;;;12.50;82.80;;;;;;5081431;28;19924;-72
2022/09/20 09:06:26;;;;;;;;;;;12.60;82.80;;;;;;5081602;28;19935;-71
2022/09/20 09:08:55;;;;;;;;;;;12.60;82.70;;;;;;5066115;28;19931;-72
2022/09/20 09:11:22;;;;;;;;;;;12.60;82.40;;;;;;5082074;28;19947;-71
2022/09/20 09:13:51;;;;;;;;;;;12.60;82.30;;;;;;5082316;28;19924;-71
2022/09/20 09:16:19;;;;;;;;;;;12.70;82.20;;;;;;5079389;28;19925;-71
2022/09/20 09:18:48;;;;;;;;;;;12.70;82.20;;;;;;5081040;28;19925;-71
2022/09/20 09:21:18;;;;;;;;;;;12.70;82.20;;;;;;5072513;28;19932;-72
2022/09/20 09:23:49;;;;;;;;;;;12.80;82.00;;;;;;5080223;28;19924;-70
2022/09/20 09:26:17;;;;;;;;;;;12.80;81.70;;;;;;5078457;28;19940;-72
2022/09/20 09:28:44;;;;;;;;;;;12.90;81.50;;;;;;5080114;28;19938;-72
2022/09/20 09:31:21;;;;;;;;;;;13.00;81.40;;;;;;5078515;28;19928;-71
2022/09/20 09:33:48;;;;;;;;;;;13.10;81.50;;;;;;5080807;28;19932;-72
2022/09/20 09:36:16;;;;;;;;;;;13.10;81.40;;;;;;5079649;28;20003;-72
2022/09/20 09:38:44;;;;;;;;;;;13.10;81.10;;;;;;5078659;28;19931;-71
2022/09/20 09:41:24;;;;;;;;;;;13.10;80.80;;;;;;5080712;28;19971;-71
2022/09/20 09:43:58;;;;;;;;;;;13.20;80.80;;;;;;5077504;28;19932;-71
2022/09/20 09:46:27;;;;;;;;;;;13.20;80.60;;;;;;5082272;28;19950;-70
2022/09/20 09:49:06;;;;;;;;;;;13.30;80.60;;;;;;5081786;28;19934;-72
2022/09/20 09:51:32;;;;;;;;;;;13.40;79.70;;;;;;5082422;28;19929;-71
2022/09/20 09:54:00;;;;;;;;;;;13.40;79.30;;;;;;5077204;28;20378;-71
2022/09/20 09:56:33;;;;;;;;;;;13.50;79.30;;;;;;5081864;28;19931;-71
2022/09/20 09:59:09;;;;;;;;;;;13.50;79.10;;;;;;5080835;28;19932;-72
2022/09/20 10:01:38;;;;;;;;;;;13.60;79.10;;;;;;5075595;28;19928;-72
2022/09/20 10:04:09;;;;;;;;;;;13.70;78.90;;;;;;5090660;28;19928;-71
2022/09/20 10:06:39;;;;;;;;;;;13.80;79.00;;;;;;5092924;28;19924;-72
2022/09/20 10:09:15;;;;;;;;;;;13.90;78.50;;;;;;5081951;28;20415;-71
2022/09/20 10:11:57;;;;;;;;;;;13.90;78.50;;;;;;5095817;28;19924;-73
2022/09/20 10:14:30;;;;;;;;;;;14.00;78.00;;;;;;5083015;28;19924;-71
2022/09/20 10:17:03;;;;;;;;;;;14.10;77.60;;;;;;5081511;28;19931;-71
2022/09/20 10:19:37;;;;;;;;;;;14.30;77.20;;;;;;5082275;28;20332;-70
2022/09/20 10:22:08;;;;;;;;;;;14.40;76.70;;;;;;5071389;28;19955;-70
2022/09/20 10:24:44;;;;;;;;;;;14.50;76.30;;;;;;5071125;28;19928;-70
2022/09/20 10:27:24;;;;;;;;;;;14.60;75.50;;;;;;5066801;28;19935;-70
2022/09/20 10:29:57;;;;;;;;;;;14.60;75.60;;;;;;5080465;28;20384;-69
2022/09/20 10:32:31;;;;;;;;;;;14.60;75.00;;;;;;5080705;28;19929;-70
2022/09/20 10:35:04;;;;;;;;;;;14.50;75.40;;;;;;5081282;28;19977;-70
2022/09/20 10:37:35;;;;;;;;;;;14.50;75.50;;;;;;5079613;28;19925;-71
2022/09/20 10:40:06;;;;;;;;;;;14.50;75.30;;;;;;5079803;28;19935;-70
2022/09/20 10:45:27;;;;;;;;;;;14.30;74.30;;;;;;5084502;28;19924;-71
2022/09/20 10:47:57;;;;;;;;;;;14.30;73.80;;;;;;5084671;28;19924;-70
2022/09/20 10:50:29;;;;;;;;;;;14.30;73.70;;;;;;5084200;28;19947;-71
2022/09/20 10:53:06;;;;;;;;;;;14.40;73.70;;;;;;5082653;28;19930;-72
2022/09/20 10:55:38;;;;;;;;;;;14.50;73.40;;;;;;5084219;28;19928;-71
2022/09/20 10:58:16;;;;;;;;;;;14.60;73.10;;;;;;5083728;28;19924;-72
2022/09/20 11:00:51;;;;;;;;;;;14.70;73.40;;;;;;5079036;28;20623;-71
2022/09/20 11:03:23;;;;;;;;;;;14.90;72.60;;;;;;5081936;28;20011;-70
2022/09/20 11:05:55;;;;;;;;;;;14.90;72.10;;;;;;5083732;28;20381;-71
2022/09/20 11:08:25;;;;;;;;;;;14.90;71.40;;;;;;5084410;28;19924;-70
2022/09/20 11:10:53;;;;;;;;;;;14.90;72.20;;;;;;5083674;28;19924;-71
2022/09/20 11:13:25;;;;;;;;;;;15.10;72.00;;;;;;5083678;28;20270;-72
2022/09/20 11:15:54;;;;;;;;;;;15.20;71.00;;;;;;5081184;28;19924;-70
2022/09/20 11:18:23;;;;;;;;;;;15.30;71.00;;;;;;5083673;28;20393;-71
2022/09/20 11:20:54;;;;;;;;;;;15.50;70.60;;;;;;5082765;28;20365;-70
2022/09/20 11:23:23;;;;;;;;;;;15.40;69.60;;;;;;5080651;28;20009;-70
2022/09/20 11:25:51;;;;;;;;;;;15.40;70.00;;;;;;5083471;28;19924;-71
2022/09/20 11:28:20;;;;;;;;;;;15.30;70.00;;;;;;5082223;28;20431;-71
2022/09/20 11:30:53;;;;;;;;;;;15.20;70.30;;;;;;5084563;28;19964;-69
2022/09/20 11:33:23;;;;;;;;;;;15.10;69.60;;;;;;5078803;28;20511;-71
2022/09/20 11:35:51;;;;;;;;;;;15.10;69.50;;;;;;5082868;28;20023;-69
2022/09/20 11:38:22;;;;;;;;;;;15.10;68.30;;;;;;5082158;28;19928;-71
2022/09/20 11:40:52;;;;;;;;;;;15.10;67.90;;;;;;5072258;28;19925;-70
2022/09/20 11:43:19;;;;;;;;;;;15.30;67.30;;;;;;5082497;28;19925;-71
2022/09/20 11:45:48;;;;;;;;;;;15.40;67.70;;;;;;5083274;28;19925;-70
2022/09/20 11:48:19;;;;;;;;;;;15.60;68.60;;;;;;5082338;28;20023;-72
2022/09/20 11:50:51;;;;;;;;;;;15.50;68.20;;;;;;5082282;28;20355;-69
2022/09/20 11:53:25;;;;;;;;;;;15.60;68.10;;;;;;5080683;28;19932;-70
2022/09/20 11:55:57;;;;;;;;;;;15.60;67.50;;;;;;5083584;28;19928;-71
2022/09/20 11:58:26;;;;;;;;;;;15.60;67.70;;;;;;5080180;28;19931;-72
2022/09/20 12:00:54;;;;;;;;;;;15.60;67.70;;;;;;5080078;28;19924;-70
2022/09/20 12:03:32;;;;;;;;;;;15.60;68.00;;;;;;5079917;28;19939;-70
2022/09/20 12:06:00;;;;;;;;;;;15.70;67.90;;;;;;5083283;28;19929;-71
2022/09/20 12:08:30;;;;;;;;;;;15.70;67.30;;;;;;5081959;28;19928;-70
2022/09/20 12:11:00;;;;;;;;;;;15.80;64.50;;;;;;5081463;28;19935;-71
2022/09/20 12:13:27;;;;;;;;;;;15.80;64.80;;;;;;5082562;28;19935;-71
2022/09/20 12:15:59;;;;;;;;;;;15.70;64.70;;;;;;5078675;28;19971;-72
2022/09/20 12:18:40;;;;;;;;;;;15.70;64.90;;;;;;5081035;28;19928;-71
2022/09/20 12:21:10;;;;;;;;;;;15.70;64.70;;;;;;5079406;28;20370;-70
2022/09/20 12:23:47;;;;;;;;;;;15.70;63.70;;;;;;5081722;28;20303;-70
2022/09/20 12:26:29;;;;;;;;;;;15.70;63.00;;;;;;5079844;28;19928;-70
2022/09/20 12:28:57;;;;;;;;;;;15.70;63.40;;;;;;5081080;28;20390;-72
2022/09/20 12:31:42;;;;;;;;;;;15.70;63.90;;;;;;5082327;28;19939;-71
2022/09/20 12:34:24;;;;;;;;;;;15.70;63.50;;;;;;5081307;28;19928;-70
2022/09/20 12:37:06;;;;;;;;;;;15.70;63.40;;;;;;5081715;28;20389;-70
2022/09/20 12:39:37;;;;;;;;;;;15.70;63.70;;;;;;5080569;28;20023;-70
2022/09/20 12:42:06;;;;;;;;;;;15.80;63.90;;;;;;5078801;28;20377;-72
2022/09/20 12:44:36;;;;;;;;;;;15.80;64.00;;;;;;5093159;28;19967;-74
2022/09/20 12:47:05;;;;;;;;;;;15.90;64.10;;;;;;5091113;28;19971;-71
2022/09/20 12:55:28;;;;;;;;;;;16.10;65.20;;;;;;5062935;28;19981;-74
2022/09/20 12:57:57;;;;;;;;;;;16.10;63.60;;;;;;5081395;28;20031;-72
2022/09/20 13:00:37;;;;;;;;;;;16.10;64.60;;;;;;5074915;28;20459;-71
2022/09/20 13:03:11;;;;;;;;;;;16.10;63.40;;;;;;5080135;28;19928;-70
2022/09/20 13:05:39;;;;;;;;;;;16.10;62.90;;;;;;5081417;28;19998;-71
2022/09/20 13:08:13;;;;;;;;;;;16.10;63.40;;;;;;5081464;28;19952;-71
2022/09/20 13:10:44;;;;;;;;;;;16.10;63.50;;;;;;5082765;28;19928;-70
2022/09/20 13:13:15;;;;;;;;;;;16.10;64.40;;;;;;5081595;28;19932;-71
2022/09/20 13:15:47;;;;;;;;;;;16.10;64.30;;;;;;5080758;28;19929;-69
2022/09/20 13:18:14;;;;;;;;;;;16.00;64.60;;;;;;5080788;28;19928;-71
2022/09/20 13:20:41;;;;;;;;;;;15.90;64.60;;;;;;5082711;28;19950;-71
2022/09/20 13:23:16;;;;;;;;;;;15.70;65.30;;;;;;5081258;28;19939;-72
2022/09/20 13:25:44;;;;;;;;;;;15.60;64.90;;;;;;5081400;28;19928;-72
2022/09/20 13:28:17;;;;;;;;;;;15.50;65.90;;;;;;5080843;28;19931;-70
2022/09/20 13:30:44;;;;;;;;;;;15.40;65.90;;;;;;5079627;28;19932;-70
2022/09/20 13:33:14;;;;;;;;;;;15.40;65.60;;;;;;5081551;28;19928;-70
2022/09/20 13:35:43;;;;;;;;;;;15.30;65.60;;;;;;5082311;28;19931;-71
2022/09/20 13:38:10;;;;;;;;;;;15.40;64.90;;;;;;5078751;28;19982;-72
2022/09/20 13:40:38;;;;;;;;;;;15.30;65.40;;;;;;5079864;28;19982;-72
2022/09/20 13:43:07;;;;;;;;;;;15.40;65.60;;;;;;5079970;28;19934;-72
2022/09/20 13:45:34;;;;;;;;;;;15.40;66.00;;;;;;5080773;28;19981;-71
2022/09/20 13:48:02;;;;;;;;;;;15.30;67.00;;;;;;5081284;28;19928;-70
2022/09/20 13:50:30;;;;;;;;;;;15.30;67.40;;;;;;5077479;28;19977;-71
2022/09/20 13:52:58;;;;;;;;;;;15.20;68.00;;;;;;5079671;28;19935;-70
2022/09/20 13:55:29;;;;;;;;;;;15.20;68.40;;;;;;5082159;28;19940;-70
2022/09/20 13:57:56;;;;;;;;;;;15.20;67.90;;;;;;5080317;28;19924;-70
2022/09/20 14:00:30;;;;;;;;;;;15.20;67.90;;;;;;5078645;28;19932;-71
2022/09/20 14:02:58;;;;;;;;;;;15.30;68.20;;;;;;5080888;28;19946;-71
2022/09/20 14:05:25;;;;;;;;;;;15.30;68.40;;;;;;5078042;28;20401;-71
2022/09/20 14:07:53;;;;;;;;;;;15.30;68.20;;;;;;5076469;28;19928;-71
2022/09/20 14:10:27;;;;;;;;;;;15.40;68.30;;;;;;5081912;28;20396;-71
2022/09/20 14:12:54;;;;;;;;;;;15.50;68.70;;;;;;5079843;28;19936;-70
2022/09/20 14:15:21;;;;;;;;;;;15.50;68.40;;;;;;5080863;28;19928;-70
2022/09/20 14:17:51;;;;;;;;;;;15.50;67.90;;;;;;5084898;28;19927;-70
2022/09/20 14:20:20;;;;;;;;;;;15.40;67.50;;;;;;5082619;28;20380;-70
2022/09/20 14:22:47;;;;;;;;;;;15.40;67.30;;;;;;5083551;28;19928;-70
2022/09/20 14:25:24;;;;;;;;;;;15.40;66.80;;;;;;5080835;28;19924;-70
2022/09/20 14:28:04;;;;;;;;;;;15.30;66.50;;;;;;5086062;28;20049;-72
2022/09/20 14:30:34;;;;;;;;;;;15.30;67.10;;;;;;5084598;28;19931;-71
2022/09/20 14:33:05;;;;;;;;;;;15.30;66.60;;;;;;5082384;28;19955;-70
2022/09/20 14:35:32;;;;;;;;;;;15.20;66.30;;;;;;5084292;28;19928;-70
2022/09/20 14:38:00;;;;;;;;;;;15.20;66.60;;;;;;5085821;28;19932;-71
2022/09/20 14:40:29;;;;;;;;;;;15.10;67.10;;;;;;5083486;28;19924;-70
2022/09/20 14:42:56;;;;;;;;;;;15.10;67.00;;;;;;5084036;28;19932;-70
2022/09/20 14:45:25;;;;;;;;;;;15.10;67.60;;;;;;5083625;28;20297;-70
2022/09/20 14:47:53;;;;;;;;;;;15.00;68.30;;;;;;5086577;28;19935;-70
2022/09/20 14:50:24;;;;;;;;;;;14.80;70.00;;;;;;5084165;28;19940;-70
2022/09/20 14:53:03;;;;;;;;;;;14.80;71.50;;;;;;5083579;28;19925;-71
2022/09/20 14:55:31;;;;;;;;;;;14.60;72.90;;;;;;5084303;28;20383;-71
2022/09/20 14:58:02;;;;;;;;;;;14.60;73.70;;;;;;5084891;28;19924;-70
2022/09/20 15:00:29;;;;;;;;;;;14.60;74.20;;;;;;5078398;28;19963;-71
2022/09/20 15:03:03;;;;;;;;;;;14.60;74.40;;;;;;5082095;28;19989;-71
2022/09/20 15:05:32;;;;;;;;;;;14.60;74.70;;;;;;5085023;28;19970;-71
2022/09/20 15:08:00;;;;;;;;;;;14.50;75.20;;;;;;5082750;28;19986;-69
2022/09/20 15:10:28;;;;;;;;;;;14.50;75.50;;;;;;5084182;28;20043;-72
2022/09/20 15:12:55;;;;;;;;;;;14.50;75.90;;;;;;5084951;28;20422;-71
2022/09/20 15:15:22;;;;;;;;;;;14.40;76.60;;;;;;5077828;28;19939;-71
2022/09/20 15:17:48;;;;;;;;;;;14.40;77.40;;;;;;5084286;28;19969;-72
2022/09/20 15:20:17;;;;;;;;;;;14.40;77.80;;;;;;5083513;28;19933;-77
2022/09/20 15:22:45;;;;;;;;;;;14.50;78.30;;;;;;5083819;28;20378;-70
2022/09/20 15:25:13;;;;;;;;;;;14.40;78.20;;;;;;5083681;28;19930;-71